createdAt,value
2018-12-05T00:02:21.107Z,100457.48
2018-12-05T00:08:24.448Z,100451.48
2018-12-05T00:14:29.100Z,100451.33
2018-12-05T00:20:32.432Z,100450.06
2018-12-05T00:26:35.774Z,100468.28
2018-12-05T00:32:39.116Z,100452.97
2018-12-05T00:38:42.453Z,100457.79
2018-12-05T00:44:45.777Z,100458.66
2018-12-05T00:50:49.100Z,100454.50
2018-12-05T00:56:52.521Z,100461.06
2018-12-05T01:02:55.859Z,100465.44
2018-12-05T01:08:59.268Z,100455.92
2018-12-05T01:15:02.630Z,100466.34
2018-12-05T01:21:05.975Z,100476.67
2018-12-05T01:27:09.299Z,100469.56
2018-12-05T01:33:12.625Z,100474.80
2018-12-05T01:39:15.967Z,100482.33
2018-12-05T01:45:19.316Z,100469.09
2018-12-05T01:51:22.653Z,100478.66
2018-12-05T01:57:25.999Z,100480.98
2018-12-05T02:03:29.346Z,100483.98
2018-12-05T02:09:32.789Z,100492.73
2018-12-05T02:15:36.142Z,100497.71
2018-12-05T02:21:39.467Z,100496.92
2018-12-05T02:27:42.811Z,100487.44
2018-12-05T02:33:46.151Z,100494.72
2018-12-05T02:39:49.498Z,100491.64
2018-12-05T02:45:52.872Z,100494.28
2018-12-05T02:51:56.202Z,100492.12
2018-12-05T02:57:59.552Z,100488.92
2018-12-05T03:04:02.879Z,100487.40
2018-12-05T03:10:19.387Z,100489.05
2018-12-05T03:16:22.715Z,100487.97
2018-12-05T03:22:26.073Z,100483.92
2018-12-05T03:28:29.428Z,100480.53
2018-12-05T03:34:32.775Z,100481.77
2018-12-05T03:40:36.506Z,100486.22
2018-12-05T03:46:39.838Z,100484.82
2018-12-05T03:52:43.192Z,100482.37
2018-12-05T03:58:46.543Z,100490.72
2018-12-05T04:04:49.879Z,100486.59
2018-12-05T04:10:53.208Z,100491.59
2018-12-05T04:16:56.631Z,100494.17
2018-12-05T04:22:59.963Z,100491.00
2018-12-05T04:29:03.314Z,100490.20
2018-12-05T04:35:06.678Z,100499.31
2018-12-05T04:41:10.050Z,100491.98
2018-12-05T04:47:13.380Z,100495.55
2018-12-05T04:53:16.703Z,100493.20
2018-12-05T04:59:20.091Z,100489.34
2018-12-05T05:05:23.521Z,100488.98
2018-12-05T05:11:26.848Z,100491.14
2018-12-05T05:17:30.207Z,100488.25
2018-12-05T05:23:33.949Z,100489.34
2018-12-05T05:29:37.282Z,100482.37
2018-12-05T05:35:40.629Z,100479.03
2018-12-05T05:41:43.980Z,100492.21
2018-12-05T05:47:47.326Z,100488.28
2018-12-05T05:53:50.689Z,100485.70
2018-12-05T05:59:54.027Z,100486.23
2018-12-05T06:05:57.355Z,100490.30
2018-12-05T06:12:00.691Z,100495.94
2018-12-05T06:18:04.023Z,100492.50
2018-12-05T06:24:07.363Z,100495.41
2018-12-05T06:30:11.105Z,100500.95
2018-12-05T06:36:14.427Z,100498.78
2018-12-05T06:42:17.755Z,100502.06
2018-12-05T06:48:21.104Z,100512.94
2018-12-05T06:54:24.461Z,100504.61
2018-12-05T07:00:27.808Z,100511.12
2018-12-05T07:06:31.138Z,100513.22
2018-12-05T07:12:34.461Z,100521.19
2018-12-05T07:18:37.842Z,100521.40
2018-12-05T07:24:41.182Z,100523.31
2018-12-05T07:30:44.559Z,100524.20
2018-12-05T07:36:47.888Z,100522.73
2018-12-05T07:42:51.244Z,100521.86
2018-12-05T07:48:54.611Z,100513.75
2018-12-05T07:54:57.982Z,100527.14
2018-12-05T08:01:01.340Z,100529.64
2018-12-05T08:07:04.692Z,100524.19
2018-12-05T08:13:08.022Z,100507.45
2018-12-05T08:19:11.367Z,100503.90
2018-12-05T08:25:14.761Z,100502.58
2018-12-05T08:31:18.230Z,100499.16
2018-12-05T08:37:21.587Z,100496.27
2018-12-05T08:43:24.941Z,100496.84
2018-12-05T08:49:28.284Z,100498.16
2018-12-05T08:55:31.625Z,100495.56
2018-12-05T09:01:34.995Z,100510.67
2018-12-05T09:07:38.348Z,100511.92
2018-12-05T09:13:41.679Z,100510.70
2018-12-05T09:19:45.034Z,100500.20
2018-12-05T09:25:48.389Z,100500.22
2018-12-05T09:31:51.734Z,100500.13
2018-12-05T09:37:55.087Z,100496.02
2018-12-05T09:43:58.405Z,100496.86
2018-12-05T09:50:01.876Z,100481.72
2018-12-05T09:56:05.302Z,100474.55
2018-12-05T10:02:08.736Z,100471.95
2018-12-05T10:08:12.077Z,100458.12
2018-12-05T10:14:15.422Z,100462.38
2018-12-05T10:20:18.751Z,100456.23
2018-12-05T10:26:22.174Z,100441.19
2018-12-05T10:32:25.521Z,100442.98
2018-12-05T10:38:28.861Z,100436.70
2018-12-05T10:44:32.213Z,100421.71
2018-12-05T10:50:35.554Z,100405.89
2018-12-05T10:56:38.911Z,100391.66
2018-12-05T11:02:47.877Z,100391.14
2018-12-05T11:08:56.797Z,100393.34
2018-12-05T11:15:05.859Z,100381.33
2018-12-05T11:21:14.655Z,100367.77
2018-12-05T11:27:18.070Z,100364.27
2018-12-05T11:33:21.422Z,100356.59
2018-12-05T11:39:24.769Z,100346.11
2018-12-05T11:45:28.182Z,100344.44
2018-12-05T11:51:31.520Z,100324.95
2018-12-05T11:57:35.010Z,100321.20
2018-12-05T12:03:38.350Z,100336.91
2018-12-05T12:09:41.770Z,100319.80
2018-12-05T12:15:45.126Z,100309.99
2018-12-05T12:21:48.460Z,100297.94
2018-12-05T12:27:51.809Z,100297.75
2018-12-05T12:33:55.138Z,100285.38
2018-12-05T12:39:58.503Z,100275.72
2018-12-05T12:46:01.841Z,100269.72
2018-12-05T12:52:05.177Z,100268.00
2018-12-05T12:58:08.528Z,100267.08
2018-12-05T13:04:11.863Z,100252.47
2018-12-05T13:10:15.215Z,100242.11
2018-12-05T13:16:18.565Z,100223.14
2018-12-05T13:22:21.910Z,100220.97
2018-12-05T13:28:25.255Z,100200.30
2018-12-05T13:34:28.633Z,100190.73
2018-12-05T13:40:31.992Z,100186.53
2018-12-05T13:46:35.342Z,100173.17
2018-12-05T13:52:38.670Z,100169.41
2018-12-05T13:58:41.967Z,100169.99
2018-12-05T14:04:45.310Z,100169.53
2018-12-05T14:10:48.649Z,100166.13
2018-12-05T14:16:51.985Z,100149.17
2018-12-05T14:22:55.294Z,100151.67
2018-12-05T14:28:58.713Z,100140.08
2018-12-05T14:35:02.007Z,100132.39
2018-12-05T14:41:05.331Z,100136.36
2018-12-05T14:47:08.666Z,100123.61
2018-12-05T14:53:11.976Z,100125.39
2018-12-05T14:59:15.308Z,100131.65
2018-12-05T15:05:18.671Z,100123.61
2018-12-05T15:11:21.990Z,100104.23
2018-12-05T15:17:25.304Z,100103.78
2018-12-05T15:23:28.666Z,100100.70
2018-12-05T15:29:32.029Z,100079.25
2018-12-05T15:35:35.406Z,100096.16
2018-12-05T15:41:38.722Z,100081.84
2018-12-05T15:47:42.050Z,100069.13
2018-12-05T15:53:45.449Z,100058.11
2018-12-05T15:59:48.766Z,100051.89
2018-12-05T16:05:52.073Z,100035.86
2018-12-05T16:11:55.399Z,100034.34
2018-12-05T16:17:58.720Z,100014.63
2018-12-05T16:24:02.039Z,100003.31
2018-12-05T16:30:05.564Z,100001.54
2018-12-05T16:36:11.194Z,99993.66
2018-12-05T16:42:14.286Z,99982.05
2018-12-05T16:48:17.621Z,99973.56
2018-12-05T16:54:21.498Z,99983.27
2018-12-05T17:00:24.811Z,99961.45
2018-12-05T17:06:28.139Z,99953.19
2018-12-05T17:12:31.461Z,99942.31
2018-12-05T17:18:34.802Z,99934.59
2018-12-05T17:24:38.116Z,99937.41
2018-12-05T17:30:41.441Z,99921.98
2018-12-05T17:36:44.776Z,99912.01
2018-12-05T17:42:48.143Z,99901.36
2018-12-05T17:48:51.456Z,99890.64
2018-12-05T17:54:55.823Z,99896.08
2018-12-05T18:00:59.149Z,99888.27
2018-12-05T18:07:02.449Z,99877.27
2018-12-05T18:13:05.761Z,99870.33
2018-12-05T18:19:09.081Z,99854.38
2018-12-05T18:25:12.410Z,99849.56
2018-12-05T18:31:15.719Z,99841.46
2018-12-05T18:37:19.052Z,99820.77
2018-12-05T18:43:22.381Z,99818.13
2018-12-05T18:49:25.686Z,99820.28
2018-12-05T18:55:29.036Z,99814.30
2018-12-05T19:01:32.367Z,99810.93
2018-12-05T19:07:35.686Z,99813.88
2018-12-05T19:20:15.145Z,99796.02
2018-12-05T19:26:18.480Z,99792.53
2018-12-05T19:32:21.806Z,99784.86
2018-12-05T19:38:25.150Z,99764.68
2018-12-05T19:44:28.479Z,99759.33
2018-12-05T19:50:31.801Z,99752.48
2018-12-05T19:56:35.295Z,99756.22
2018-12-05T20:02:38.636Z,99753.91
2018-12-05T20:08:41.955Z,99740.87
2018-12-05T20:14:45.290Z,99743.25
2018-12-05T20:20:48.630Z,99742.42
2018-12-05T20:26:51.970Z,99732.69
2018-12-05T20:32:55.328Z,99727.81
2018-12-05T20:38:58.654Z,99717.16
2018-12-05T20:45:02.011Z,99710.14
2018-12-05T20:51:05.401Z,99688.73
2018-12-05T20:57:08.732Z,99669.03
2018-12-05T21:03:12.083Z,99671.50
2018-12-05T21:09:15.436Z,99672.17
2018-12-05T21:15:18.791Z,99673.00
2018-12-05T21:21:22.130Z,99674.67
2018-12-05T21:27:25.461Z,99670.24
2018-12-05T21:33:28.783Z,99660.95
2018-12-05T21:39:32.122Z,99644.77
2018-12-05T21:45:35.512Z,99635.84
2018-12-05T21:51:38.846Z,99623.52
2018-12-05T21:57:42.198Z,99617.81
2018-12-05T22:03:45.538Z,99611.11
2018-12-05T22:09:48.901Z,99619.14
2018-12-05T22:15:52.235Z,99623.51
2018-12-05T22:21:55.558Z,99638.77
2018-12-05T22:27:58.918Z,99622.18
2018-12-05T22:34:02.295Z,99622.42
2018-12-05T22:40:08.540Z,99616.60
2018-12-05T22:46:11.872Z,99602.05
2018-12-05T22:52:15.219Z,99602.81
2018-12-05T22:58:18.539Z,99616.53
2018-12-05T23:04:21.874Z,99596.17
2018-12-05T23:10:25.224Z,99581.33
2018-12-05T23:16:28.564Z,99561.09
2018-12-05T23:22:31.895Z,99560.70
2018-12-05T23:28:35.244Z,99543.59
2018-12-05T23:34:38.578Z,99543.55
2018-12-05T23:40:41.920Z,99542.23
2018-12-05T23:46:45.250Z,99520.70
2018-12-05T23:52:48.616Z,99513.61
2018-12-05T23:58:52.242Z,99506.16
